sensor_id;sensor_type;location;lat;lon;timestamp;temperature;humidity
27619;DHT22;15039;50.830;4.730;2022-11-02T00:00:38;14.30;99.90
27619;DHT22;15039;50.830;4.730;2022-11-02T00:03:04;14.30;99.90
27619;DHT22;15039;50.830;4.730;2022-11-02T00:05:29;14.30;99.90
27619;DHT22;15039;50.830;4.730;2022-11-02T00:07:55;14.30;99.90
27619;DHT22;15039;50.830;4.730;2022-11-02T00:10:22;14.30;99.90
27619;DHT22;15039;50.830;4.730;2022-11-02T00:12:48;14.30;99.90
27619;DHT22;15039;50.830;4.730;2022-11-02T00:15:14;14.30;99.90
27619;DHT22;15039;50.830;4.730;2022-11-02T00:17:42;14.30;99.90
27619;DHT22;15039;50.830;4.730;2022-11-02T00:20:09;14.30;99.90
27619;DHT22;15039;50.830;4.730;2022-11-02T00:22:36;14.30;99.90
27619;DHT22;15039;50.830;4.730;2022-11-02T00:25:03;14.20;99.90
27619;DHT22;15039;50.830;4.730;2022-11-02T00:27:31;14.20;99.90
27619;DHT22;15039;50.830;4.730;2022-11-02T00:29:59;14.20;99.90
27619;DHT22;15039;50.830;4.730;2022-11-02T00:32:25;14.20;99.90
27619;DHT22;15039;50.830;4.730;2022-11-02T00:34:51;14.20;99.90
27619;DHT22;15039;50.830;4.730;2022-11-02T00:37:17;14.20;99.90
27619;DHT22;15039;50.830;4.730;2022-11-02T00:39:42;14.20;99.90
27619;DHT22;15039;50.830;4.730;2022-11-02T00:42:08;14.20;99.90
27619;DHT22;15039;50.830;4.730;2022-11-02T00:44:34;14.10;99.90
27619;DHT22;15039;50.830;4.730;2022-11-02T00:46:59;14.10;99.90
27619;DHT22;15039;50.830;4.730;2022-11-02T00:49:25;14.10;99.90
27619;DHT22;15039;50.830;4.730;2022-11-02T00:51:51;14.10;99.90
27619;DHT22;15039;50.830;4.730;2022-11-02T00:54:16;14.10;99.90
27619;DHT22;15039;50.830;4.730;2022-11-02T00:56:42;14.10;99.90
27619;DHT22;15039;50.830;4.730;2022-11-02T00:59:07;14.10;99.90
27619;DHT22;15039;50.830;4.730;2022-11-02T01:01:33;14.10;99.90
27619;DHT22;15039;50.830;4.730;2022-11-02T01:03:59;14.10;99.90
27619;DHT22;15039;50.830;4.730;2022-11-02T01:06:24;14.10;99.90
27619;DHT22;15039;50.830;4.730;2022-11-02T01:08:50;14.10;99.90
27619;DHT22;15039;50.830;4.730;2022-11-02T01:11:18;14.00;99.90
27619;DHT22;15039;50.830;4.730;2022-11-02T01:13:45;14.00;99.90
27619;DHT22;15039;50.830;4.730;2022-11-02T01:16:11;14.00;99.90
27619;DHT22;15039;50.830;4.730;2022-11-02T01:18:38;14.00;99.90
27619;DHT22;15039;50.830;4.730;2022-11-02T01:21:04;13.90;99.90
27619;DHT22;15039;50.830;4.730;2022-11-02T01:23:31;13.90;99.90
27619;DHT22;15039;50.830;4.730;2022-11-02T01:25:57;13.90;99.90
27619;DHT22;15039;50.830;4.730;2022-11-02T01:28:23;13.80;99.90
27619;DHT22;15039;50.830;4.730;2022-11-02T01:30:49;13.80;99.90
27619;DHT22;15039;50.830;4.730;2022-11-02T01:33:14;13.70;99.90
27619;DHT22;15039;50.830;4.730;2022-11-02T01:35:40;13.80;99.90
27619;DHT22;15039;50.830;4.730;2022-11-02T01:38:05;13.80;99.90
27619;DHT22;15039;50.830;4.730;2022-11-02T01:40:38;13.70;99.90
27619;DHT22;15039;50.830;4.730;2022-11-02T01:43:32;13.70;99.90
27619;DHT22;15039;50.830;4.730;2022-11-02T01:48:34;13.60;99.90
27619;DHT22;15039;50.830;4.730;2022-11-02T01:51:00;13.60;99.90
27619;DHT22;15039;50.830;4.730;2022-11-02T01:53:26;13.60;99.90
27619;DHT22;15039;50.830;4.730;2022-11-02T01:55:53;13.60;99.90
27619;DHT22;15039;50.830;4.730;2022-11-02T01:58:19;13.60;99.90
27619;DHT22;15039;50.830;4.730;2022-11-02T02:00:45;13.60;99.90
27619;DHT22;15039;50.830;4.730;2022-11-02T02:03:13;13.60;99.90
27619;DHT22;15039;50.830;4.730;2022-11-02T02:05:47;13.50;99.90
27619;DHT22;15039;50.830;4.730;2022-11-02T02:08:17;13.50;99.90
27619;DHT22;15039;50.830;4.730;2022-11-02T02:10:44;13.50;99.90
27619;DHT22;15039;50.830;4.730;2022-11-02T02:13:10;13.50;99.90
27619;DHT22;15039;50.830;4.730;2022-11-02T02:18:49;13.40;99.90
27619;DHT22;15039;50.830;4.730;2022-11-02T02:21:45;13.40;99.90
27619;DHT22;15039;50.830;4.730;2022-11-02T02:24:23;13.40;99.90
27619;DHT22;15039;50.830;4.730;2022-11-02T02:30:07;13.30;99.90
27619;DHT22;15039;50.830;4.730;2022-11-02T02:32:49;13.40;99.90
27619;DHT22;15039;50.830;4.730;2022-11-02T02:37:57;13.40;99.90
27619;DHT22;15039;50.830;4.730;2022-11-02T02:40:33;13.40;99.90
27619;DHT22;15039;50.830;4.730;2022-11-02T02:43:06;13.40;99.90
27619;DHT22;15039;50.830;4.730;2022-11-02T02:45:37;13.40;99.90
27619;DHT22;15039;50.830;4.730;2022-11-02T02:48:30;13.30;99.90
27619;DHT22;15039;50.830;4.730;2022-11-02T02:51:06;13.30;99.90
27619;DHT22;15039;50.830;4.730;2022-11-02T02:53:40;13.30;99.90
27619;DHT22;15039;50.830;4.730;2022-11-02T02:56:06;13.20;99.90
27619;DHT22;15039;50.830;4.730;2022-11-02T02:58:44;13.20;99.90
27619;DHT22;15039;50.830;4.730;2022-11-02T03:01:13;13.20;99.90
27619;DHT22;15039;50.830;4.730;2022-11-02T03:03:41;13.20;99.90
27619;DHT22;15039;50.830;4.730;2022-11-02T03:06:34;13.10;99.90
27619;DHT22;15039;50.830;4.730;2022-11-02T03:17:18;13.20;99.90
27619;DHT22;15039;50.830;4.730;2022-11-02T03:20:02;13.10;99.90
27619;DHT22;15039;50.830;4.730;2022-11-02T03:22:33;13.20;99.90
27619;DHT22;15039;50.830;4.730;2022-11-02T03:25:18;13.10;99.90
27619;DHT22;15039;50.830;4.730;2022-11-02T03:27:56;13.10;99.90
27619;DHT22;15039;50.830;4.730;2022-11-02T03:30:29;13.00;99.90
27619;DHT22;15039;50.830;4.730;2022-11-02T03:33:05;13.10;99.90
27619;DHT22;15039;50.830;4.730;2022-11-02T03:35:54;13.10;99.90
27619;DHT22;15039;50.830;4.730;2022-11-02T03:38:24;13.20;99.90
27619;DHT22;15039;50.830;4.730;2022-11-02T03:40:54;13.10;99.90
27619;DHT22;15039;50.830;4.730;2022-11-02T03:43:22;13.10;99.90
27619;DHT22;15039;50.830;4.730;2022-11-02T03:45:54;13.10;99.90
27619;DHT22;15039;50.830;4.730;2022-11-02T03:48:23;13.00;99.90
27619;DHT22;15039;50.830;4.730;2022-11-02T03:50:51;13.00;99.90
27619;DHT22;15039;50.830;4.730;2022-11-02T03:53:23;13.00;99.90
27619;DHT22;15039;50.830;4.730;2022-11-02T03:55:55;13.00;99.90
27619;DHT22;15039;50.830;4.730;2022-11-02T03:58:22;13.00;99.90
27619;DHT22;15039;50.830;4.730;2022-11-02T04:00:54;12.90;99.90
27619;DHT22;15039;50.830;4.730;2022-11-02T04:03:22;12.90;99.90
27619;DHT22;15039;50.830;4.730;2022-11-02T04:05:49;12.90;99.90
27619;DHT22;15039;50.830;4.730;2022-11-02T04:08:27;12.90;99.90
27619;DHT22;15039;50.830;4.730;2022-11-02T04:10:54;13.00;99.90
27619;DHT22;15039;50.830;4.730;2022-11-02T04:13:38;13.00;99.90
27619;DHT22;15039;50.830;4.730;2022-11-02T04:16:22;13.00;99.90
27619;DHT22;15039;50.830;4.730;2022-11-02T04:18:48;12.90;99.90
27619;DHT22;15039;50.830;4.730;2022-11-02T04:21:32;12.80;99.90
27619;DHT22;15039;50.830;4.730;2022-11-02T04:23:57;12.80;99.90
27619;DHT22;15039;50.830;4.730;2022-11-02T04:26:41;12.80;99.90
27619;DHT22;15039;50.830;4.730;2022-11-02T04:29:07;12.80;99.90
27619;DHT22;15039;50.830;4.730;2022-11-02T04:31:33;12.80;99.90
27619;DHT22;15039;50.830;4.730;2022-11-02T04:33:58;12.90;99.90
27619;DHT22;15039;50.830;4.730;2022-11-02T04:36:25;13.00;99.90
27619;DHT22;15039;50.830;4.730;2022-11-02T04:38:52;13.00;99.90
27619;DHT22;15039;50.830;4.730;2022-11-02T04:41:20;12.90;99.90
27619;DHT22;15039;50.830;4.730;2022-11-02T04:44:04;12.80;99.90
27619;DHT22;15039;50.830;4.730;2022-11-02T04:46:33;12.80;99.90
27619;DHT22;15039;50.830;4.730;2022-11-02T04:49:00;12.80;99.90
27619;DHT22;15039;50.830;4.730;2022-11-02T04:51:27;12.80;99.90
27619;DHT22;15039;50.830;4.730;2022-11-02T04:53:54;12.80;99.90
27619;DHT22;15039;50.830;4.730;2022-11-02T04:56:20;12.90;99.90
27619;DHT22;15039;50.830;4.730;2022-11-02T04:58:50;13.00;99.90
27619;DHT22;15039;50.830;4.730;2022-11-02T05:01:16;13.00;99.90
27619;DHT22;15039;50.830;4.730;2022-11-02T05:03:44;13.00;99.90
27619;DHT22;15039;50.830;4.730;2022-11-02T05:06:10;12.90;99.90
27619;DHT22;15039;50.830;4.730;2022-11-02T05:08:37;12.80;99.90
27619;DHT22;15039;50.830;4.730;2022-11-02T05:11:03;12.80;99.90
27619;DHT22;15039;50.830;4.730;2022-11-02T05:13:28;12.70;99.90
27619;DHT22;15039;50.830;4.730;2022-11-02T05:15:55;12.70;99.90
27619;DHT22;15039;50.830;4.730;2022-11-02T05:18:21;12.70;99.90
27619;DHT22;15039;50.830;4.730;2022-11-02T05:20:50;12.60;99.90
27619;DHT22;15039;50.830;4.730;2022-11-02T05:23:17;12.60;99.90
27619;DHT22;15039;50.830;4.730;2022-11-02T05:25:54;12.50;99.90
27619;DHT22;15039;50.830;4.730;2022-11-02T05:28:20;12.50;99.90
27619;DHT22;15039;50.830;4.730;2022-11-02T05:30:46;12.50;99.90
27619;DHT22;15039;50.830;4.730;2022-11-02T05:33:12;12.30;99.90
27619;DHT22;15039;50.830;4.730;2022-11-02T05:35:38;12.30;99.90
27619;DHT22;15039;50.830;4.730;2022-11-02T05:38:03;12.30;99.90
27619;DHT22;15039;50.830;4.730;2022-11-02T05:40:29;12.30;99.90
27619;DHT22;15039;50.830;4.730;2022-11-02T05:42:59;12.30;99.90
27619;DHT22;15039;50.830;4.730;2022-11-02T05:45:25;12.30;99.90
27619;DHT22;15039;50.830;4.730;2022-11-02T05:47:51;12.30;99.90
27619;DHT22;15039;50.830;4.730;2022-11-02T05:50:17;12.20;99.90
27619;DHT22;15039;50.830;4.730;2022-11-02T05:52:42;12.30;99.90
27619;DHT22;15039;50.830;4.730;2022-11-02T05:55:08;12.20;99.90
27619;DHT22;15039;50.830;4.730;2022-11-02T05:57:33;12.20;99.90
27619;DHT22;15039;50.830;4.730;2022-11-02T05:59:59;12.20;99.90
27619;DHT22;15039;50.830;4.730;2022-11-02T06:02:25;12.20;99.90
27619;DHT22;15039;50.830;4.730;2022-11-02T06:04:51;12.20;99.90
27619;DHT22;15039;50.830;4.730;2022-11-02T06:07:16;12.20;99.90
27619;DHT22;15039;50.830;4.730;2022-11-02T06:09:42;12.20;99.90
27619;DHT22;15039;50.830;4.730;2022-11-02T06:12:08;12.20;99.90
27619;DHT22;15039;50.830;4.730;2022-11-02T06:14:33;12.20;99.90
27619;DHT22;15039;50.830;4.730;2022-11-02T06:16:59;12.20;99.90
27619;DHT22;15039;50.830;4.730;2022-11-02T06:19:25;12.10;99.90
27619;DHT22;15039;50.830;4.730;2022-11-02T06:21:50;12.10;99.90
27619;DHT22;15039;50.830;4.730;2022-11-02T06:24:16;12.10;99.90
27619;DHT22;15039;50.830;4.730;2022-11-02T06:26:41;12.20;99.90
27619;DHT22;15039;50.830;4.730;2022-11-02T06:29:07;12.10;99.90
27619;DHT22;15039;50.830;4.730;2022-11-02T06:31:33;12.10;99.90
27619;DHT22;15039;50.830;4.730;2022-11-02T06:33:58;12.00;99.90
27619;DHT22;15039;50.830;4.730;2022-11-02T06:36:24;12.00;99.90
27619;DHT22;15039;50.830;4.730;2022-11-02T06:38:49;12.00;99.90
27619;DHT22;15039;50.830;4.730;2022-11-02T06:41:15;12.00;99.90
27619;DHT22;15039;50.830;4.730;2022-11-02T06:43:41;12.00;99.90
27619;DHT22;15039;50.830;4.730;2022-11-02T06:46:07;11.90;99.90
27619;DHT22;15039;50.830;4.730;2022-11-02T06:48:33;12.00;99.90
27619;DHT22;15039;50.830;4.730;2022-11-02T06:51:01;11.90;99.90
27619;DHT22;15039;50.830;4.730;2022-11-02T06:53:26;11.90;99.90
27619;DHT22;15039;50.830;4.730;2022-11-02T06:55:56;12.00;99.90
27619;DHT22;15039;50.830;4.730;2022-11-02T06:58:23;11.90;99.90
27619;DHT22;15039;50.830;4.730;2022-11-02T07:00:49;11.90;99.90
27619;DHT22;15039;50.830;4.730;2022-11-02T07:03:15;11.90;99.90
27619;DHT22;15039;50.830;4.730;2022-11-02T07:05:41;11.90;99.90
27619;DHT22;15039;50.830;4.730;2022-11-02T07:08:07;11.90;99.90
27619;DHT22;15039;50.830;4.730;2022-11-02T07:10:33;11.90;99.90
27619;DHT22;15039;50.830;4.730;2022-11-02T07:13:01;11.90;99.90
27619;DHT22;15039;50.830;4.730;2022-11-02T07:15:27;11.90;99.90
27619;DHT22;15039;50.830;4.730;2022-11-02T07:17:53;11.90;99.90
27619;DHT22;15039;50.830;4.730;2022-11-02T07:20:19;11.90;99.90
27619;DHT22;15039;50.830;4.730;2022-11-02T07:25:18;11.80;99.90
27619;DHT22;15039;50.830;4.730;2022-11-02T07:27:44;11.90;99.90
27619;DHT22;15039;50.830;4.730;2022-11-02T07:30:10;11.90;99.90
27619;DHT22;15039;50.830;4.730;2022-11-02T07:32:43;12.00;99.90
27619;DHT22;15039;50.830;4.730;2022-11-02T07:35:10;12.00;99.90
27619;DHT22;15039;50.830;4.730;2022-11-02T07:37:37;11.90;99.90
27619;DHT22;15039;50.830;4.730;2022-11-02T07:40:04;11.90;99.90
27619;DHT22;15039;50.830;4.730;2022-11-02T07:42:30;11.90;99.90
27619;DHT22;15039;50.830;4.730;2022-11-02T07:44:55;11.90;99.90
27619;DHT22;15039;50.830;4.730;2022-11-02T07:47:21;12.00;99.90
27619;DHT22;15039;50.830;4.730;2022-11-02T07:49:47;12.00;99.90
27619;DHT22;15039;50.830;4.730;2022-11-02T07:52:12;12.00;99.90
27619;DHT22;15039;50.830;4.730;2022-11-02T07:54:38;12.10;99.90
27619;DHT22;15039;50.830;4.730;2022-11-02T07:57:03;12.10;99.90
27619;DHT22;15039;50.830;4.730;2022-11-02T07:59:29;12.20;99.90
27619;DHT22;15039;50.830;4.730;2022-11-02T08:01:55;12.10;99.90
27619;DHT22;15039;50.830;4.730;2022-11-02T08:04:20;12.20;99.90
27619;DHT22;15039;50.830;4.730;2022-11-02T08:06:46;12.20;99.90
27619;DHT22;15039;50.830;4.730;2022-11-02T08:09:11;12.10;99.90
27619;DHT22;15039;50.830;4.730;2022-11-02T08:11:37;12.00;99.90
27619;DHT22;15039;50.830;4.730;2022-11-02T08:14:03;12.10;99.90
27619;DHT22;15039;50.830;4.730;2022-11-02T08:16:28;12.20;99.90
27619;DHT22;15039;50.830;4.730;2022-11-02T08:18:54;12.10;99.90
27619;DHT22;15039;50.830;4.730;2022-11-02T08:21:23;12.10;99.90
27619;DHT22;15039;50.830;4.730;2022-11-02T08:23:48;12.10;99.90
27619;DHT22;15039;50.830;4.730;2022-11-02T08:26:14;12.20;99.90
27619;DHT22;15039;50.830;4.730;2022-11-02T08:28:40;12.30;99.90
27619;DHT22;15039;50.830;4.730;2022-11-02T08:31:06;12.30;99.90
27619;DHT22;15039;50.830;4.730;2022-11-02T08:33:35;12.40;99.90
27619;DHT22;15039;50.830;4.730;2022-11-02T08:36:02;12.60;99.90
27619;DHT22;15039;50.830;4.730;2022-11-02T08:38:31;12.60;99.90
27619;DHT22;15039;50.830;4.730;2022-11-02T08:40:56;12.60;99.90
27619;DHT22;15039;50.830;4.730;2022-11-02T08:43:22;12.50;99.90
27619;DHT22;15039;50.830;4.730;2022-11-02T08:45:48;12.50;99.90
27619;DHT22;15039;50.830;4.730;2022-11-02T08:48:14;12.60;99.90
27619;DHT22;15039;50.830;4.730;2022-11-02T08:50:40;12.70;99.90
27619;DHT22;15039;50.830;4.730;2022-11-02T08:53:05;12.70;99.90
27619;DHT22;15039;50.830;4.730;2022-11-02T08:55:32;12.80;99.90
27619;DHT22;15039;50.830;4.730;2022-11-02T08:57:58;12.80;99.90
27619;DHT22;15039;50.830;4.730;2022-11-02T09:00:29;12.90;99.90
27619;DHT22;15039;50.830;4.730;2022-11-02T09:03:07;12.90;99.90
27619;DHT22;15039;50.830;4.730;2022-11-02T09:05:38;12.90;99.90
27619;DHT22;15039;50.830;4.730;2022-11-02T09:08:10;12.80;99.90
27619;DHT22;15039;50.830;4.730;2022-11-02T09:10:36;12.90;99.90
27619;DHT22;15039;50.830;4.730;2022-11-02T09:13:04;12.90;99.90
27619;DHT22;15039;50.830;4.730;2022-11-02T09:15:33;12.90;99.90
27619;DHT22;15039;50.830;4.730;2022-11-02T09:17:59;12.90;99.90
27619;DHT22;15039;50.830;4.730;2022-11-02T09:20:25;13.10;99.90
27619;DHT22;15039;50.830;4.730;2022-11-02T09:22:50;13.20;99.90
27619;DHT22;15039;50.830;4.730;2022-11-02T09:25:16;13.20;99.90
27619;DHT22;15039;50.830;4.730;2022-11-02T09:27:42;13.10;99.90
27619;DHT22;15039;50.830;4.730;2022-11-02T09:30:09;13.20;99.90
27619;DHT22;15039;50.830;4.730;2022-11-02T09:32:35;13.20;99.90
27619;DHT22;15039;50.830;4.730;2022-11-02T09:35:03;13.20;99.90
27619;DHT22;15039;50.830;4.730;2022-11-02T09:37:30;13.20;99.90
27619;DHT22;15039;50.830;4.730;2022-11-02T09:39:56;13.30;99.90
27619;DHT22;15039;50.830;4.730;2022-11-02T09:42:41;13.40;99.90
27619;DHT22;15039;50.830;4.730;2022-11-02T09:45:15;13.60;99.90
27619;DHT22;15039;50.830;4.730;2022-11-02T09:47:55;13.70;99.90
27619;DHT22;15039;50.830;4.730;2022-11-02T09:50:56;13.70;99.90
27619;DHT22;15039;50.830;4.730;2022-11-02T09:53:38;13.80;99.90
27619;DHT22;15039;50.830;4.730;2022-11-02T09:56:06;13.80;99.90
27619;DHT22;15039;50.830;4.730;2022-11-02T09:58:36;13.80;99.90
27619;DHT22;15039;50.830;4.730;2022-11-02T10:06:34;13.90;99.90
27619;DHT22;15039;50.830;4.730;2022-11-02T10:09:20;13.80;99.90
27619;DHT22;15039;50.830;4.730;2022-11-02T10:12:05;13.70;99.90
27619;DHT22;15039;50.830;4.730;2022-11-02T10:14:39;13.70;99.90
27619;DHT22;15039;50.830;4.730;2022-11-02T10:17:20;13.70;99.90
27619;DHT22;15039;50.830;4.730;2022-11-02T10:19:54;13.80;99.90
27619;DHT22;15039;50.830;4.730;2022-11-02T10:22:23;13.90;99.90
27619;DHT22;15039;50.830;4.730;2022-11-02T10:24:52;14.00;99.90
27619;DHT22;15039;50.830;4.730;2022-11-02T10:27:24;14.10;99.90
27619;DHT22;15039;50.830;4.730;2022-11-02T10:30:09;14.10;99.90
27619;DHT22;15039;50.830;4.730;2022-11-02T10:32:38;14.20;99.90
27619;DHT22;15039;50.830;4.730;2022-11-02T10:35:23;14.10;99.90
27619;DHT22;15039;50.830;4.730;2022-11-02T10:40:45;14.10;99.90
27619;DHT22;15039;50.830;4.730;2022-11-02T10:43:36;14.10;99.90
27619;DHT22;15039;50.830;4.730;2022-11-02T10:46:23;14.10;99.90
27619;DHT22;15039;50.830;4.730;2022-11-02T10:51:22;14.30;99.90
27619;DHT22;15039;50.830;4.730;2022-11-02T10:53:50;14.40;99.90
27619;DHT22;15039;50.830;4.730;2022-11-02T10:56:17;14.40;99.90
27619;DHT22;15039;50.830;4.730;2022-11-02T10:58:49;14.50;99.90
27619;DHT22;15039;50.830;4.730;2022-11-02T11:01:15;14.60;99.90
27619;DHT22;15039;50.830;4.730;2022-11-02T11:03:57;14.50;99.90
27619;DHT22;15039;50.830;4.730;2022-11-02T11:06:25;14.60;99.90
27619;DHT22;15039;50.830;4.730;2022-11-02T11:09:02;14.70;99.90
27619;DHT22;15039;50.830;4.730;2022-11-02T11:11:35;14.80;99.90
27619;DHT22;15039;50.830;4.730;2022-11-02T11:14:21;14.80;99.90
27619;DHT22;15039;50.830;4.730;2022-11-02T11:17:14;15.00;99.90
27619;DHT22;15039;50.830;4.730;2022-11-02T11:19:49;15.10;99.90
27619;DHT22;15039;50.830;4.730;2022-11-02T11:22:37;15.20;99.90
27619;DHT22;15039;50.830;4.730;2022-11-02T11:31:09;15.50;99.90
27619;DHT22;15039;50.830;4.730;2022-11-02T11:33:53;15.50;99.90
27619;DHT22;15039;50.830;4.730;2022-11-02T11:36:30;15.60;99.90
27619;DHT22;15039;50.830;4.730;2022-11-02T11:39:02;15.50;99.90
27619;DHT22;15039;50.830;4.730;2022-11-02T11:41:30;15.50;99.90
27619;DHT22;15039;50.830;4.730;2022-11-02T11:43:58;15.50;99.90
27619;DHT22;15039;50.830;4.730;2022-11-02T11:46:38;15.50;99.90
27619;DHT22;15039;50.830;4.730;2022-11-02T11:49:04;15.50;99.90
27619;DHT22;15039;50.830;4.730;2022-11-02T11:51:38;15.50;99.90
27619;DHT22;15039;50.830;4.730;2022-11-02T11:54:25;15.60;99.90
27619;DHT22;15039;50.830;4.730;2022-11-02T11:56:55;15.70;99.90
27619;DHT22;15039;50.830;4.730;2022-11-02T11:59:28;15.70;99.90
27619;DHT22;15039;50.830;4.730;2022-11-02T12:01:57;15.60;99.90
27619;DHT22;15039;50.830;4.730;2022-11-02T12:04:34;15.50;99.90
27619;DHT22;15039;50.830;4.730;2022-11-02T12:07:22;15.50;99.90
27619;DHT22;15039;50.830;4.730;2022-11-02T12:35:18;15.50;99.90
27619;DHT22;15039;50.830;4.730;2022-11-02T12:38:18;15.60;99.90
27619;DHT22;15039;50.830;4.730;2022-11-02T12:41:02;15.70;99.90
27619;DHT22;15039;50.830;4.730;2022-11-02T12:52:10;15.80;99.90
27619;DHT22;15039;50.830;4.730;2022-11-02T12:54:45;15.80;99.90
27619;DHT22;15039;50.830;4.730;2022-11-02T12:57:17;15.80;99.90
27619;DHT22;15039;50.830;4.730;2022-11-02T12:59:45;15.90;99.90
27619;DHT22;15039;50.830;4.730;2022-11-02T13:02:23;15.80;99.90
27619;DHT22;15039;50.830;4.730;2022-11-02T13:07:33;15.80;99.90
27619;DHT22;15039;50.830;4.730;2022-11-02T13:12:31;15.80;99.90
27619;DHT22;15039;50.830;4.730;2022-11-02T13:15:01;15.80;99.90
27619;DHT22;15039;50.830;4.730;2022-11-02T13:17:48;15.80;99.90
27619;DHT22;15039;50.830;4.730;2022-11-02T13:23:04;15.80;99.90
27619;DHT22;15039;50.830;4.730;2022-11-02T13:25:38;15.70;99.90
27619;DHT22;15039;50.830;4.730;2022-11-02T13:28:17;15.80;99.90
27619;DHT22;15039;50.830;4.730;2022-11-02T13:30:44;15.80;99.90
27619;DHT22;15039;50.830;4.730;2022-11-02T13:33:22;15.90;99.90
27619;DHT22;15039;50.830;4.730;2022-11-02T13:35:50;15.90;99.90
27619;DHT22;15039;50.830;4.730;2022-11-02T13:38:26;15.70;99.90
27619;DHT22;15039;50.830;4.730;2022-11-02T13:41:09;15.70;99.90
27619;DHT22;15039;50.830;4.730;2022-11-02T13:52:20;15.70;99.90
27619;DHT22;15039;50.830;4.730;2022-11-02T13:55:03;15.70;99.90
27619;DHT22;15039;50.830;4.730;2022-11-02T13:57:39;15.50;99.90
27619;DHT22;15039;50.830;4.730;2022-11-02T14:00:27;15.50;99.90
27619;DHT22;15039;50.830;4.730;2022-11-02T14:05:31;15.60;99.90
27619;DHT22;15039;50.830;4.730;2022-11-02T14:08:02;15.60;99.90
27619;DHT22;15039;50.830;4.730;2022-11-02T14:10:32;15.60;99.90
27619;DHT22;15039;50.830;4.730;2022-11-02T14:13:00;15.60;99.90
27619;DHT22;15039;50.830;4.730;2022-11-02T14:30:48;15.60;99.90
27619;DHT22;15039;50.830;4.730;2022-11-02T14:36:22;15.50;99.90
27619;DHT22;15039;50.830;4.730;2022-11-02T14:47:33;15.30;99.90
27619;DHT22;15039;50.830;4.730;2022-11-02T14:50:16;15.40;99.90
27619;DHT22;15039;50.830;4.730;2022-11-02T14:53:00;15.30;99.90
27619;DHT22;15039;50.830;4.730;2022-11-02T14:55:32;15.30;99.90
27619;DHT22;15039;50.830;4.730;2022-11-02T14:58:15;15.30;99.90
27619;DHT22;15039;50.830;4.730;2022-11-02T15:03:31;15.30;99.90
27619;DHT22;15039;50.830;4.730;2022-11-02T15:06:05;15.40;99.90
27619;DHT22;15039;50.830;4.730;2022-11-02T15:08:56;15.40;99.90
27619;DHT22;15039;50.830;4.730;2022-11-02T15:14:49;15.30;99.90
27619;DHT22;15039;50.830;4.730;2022-11-02T15:19:46;15.30;99.90
27619;DHT22;15039;50.830;4.730;2022-11-02T15:25:13;15.10;99.90
27619;DHT22;15039;50.830;4.730;2022-11-02T15:27:42;15.00;99.90
27619;DHT22;15039;50.830;4.730;2022-11-02T15:30:21;15.00;99.90
27619;DHT22;15039;50.830;4.730;2022-11-02T15:32:53;15.00;99.90
27619;DHT22;15039;50.830;4.730;2022-11-02T15:35:21;14.90;99.90
27619;DHT22;15039;50.830;4.730;2022-11-02T15:37:51;14.90;99.90
27619;DHT22;15039;50.830;4.730;2022-11-02T15:40:22;14.90;99.90
27619;DHT22;15039;50.830;4.730;2022-11-02T15:43:22;14.80;99.90
27619;DHT22;15039;50.830;4.730;2022-11-02T15:51:47;14.80;99.90
27619;DHT22;15039;50.830;4.730;2022-11-02T15:54:24;14.70;99.90
27619;DHT22;15039;50.830;4.730;2022-11-02T16:02:27;14.40;99.90
27619;DHT22;15039;50.830;4.730;2022-11-02T16:04:56;14.30;99.90
27619;DHT22;15039;50.830;4.730;2022-11-02T16:07:23;14.30;99.90
27619;DHT22;15039;50.830;4.730;2022-11-02T16:09:49;14.30;99.90
27619;DHT22;15039;50.830;4.730;2022-11-02T16:12:22;14.20;99.90
27619;DHT22;15039;50.830;4.730;2022-11-02T16:15:21;14.10;99.90
27619;DHT22;15039;50.830;4.730;2022-11-02T16:17:48;14.00;99.90
27619;DHT22;15039;50.830;4.730;2022-11-02T16:20:28;13.90;99.90
27619;DHT22;15039;50.830;4.730;2022-11-02T16:23:00;13.90;99.90
27619;DHT22;15039;50.830;4.730;2022-11-02T16:25:45;13.70;99.90
27619;DHT22;15039;50.830;4.730;2022-11-02T16:28:25;13.70;99.90
27619;DHT22;15039;50.830;4.730;2022-11-02T16:33:41;13.60;99.90
27619;DHT22;15039;50.830;4.730;2022-11-02T16:36:13;13.70;99.90
27619;DHT22;15039;50.830;4.730;2022-11-02T16:38:46;13.60;99.90
27619;DHT22;15039;50.830;4.730;2022-11-02T16:41:13;13.60;99.90
27619;DHT22;15039;50.830;4.730;2022-11-02T16:43:43;13.50;99.90
27619;DHT22;15039;50.830;4.730;2022-11-02T16:46:13;13.40;99.90
27619;DHT22;15039;50.830;4.730;2022-11-02T16:49:00;13.50;99.90
27619;DHT22;15039;50.830;4.730;2022-11-02T16:51:27;13.40;99.90
27619;DHT22;15039;50.830;4.730;2022-11-02T16:53:53;13.30;99.90
27619;DHT22;15039;50.830;4.730;2022-11-02T16:56:28;13.30;99.90
27619;DHT22;15039;50.830;4.730;2022-11-02T16:59:03;13.30;99.90
27619;DHT22;15039;50.830;4.730;2022-11-02T17:01:36;13.30;99.90
27619;DHT22;15039;50.830;4.730;2022-11-02T17:04:23;13.20;99.90
27619;DHT22;15039;50.830;4.730;2022-11-02T17:06:52;13.20;99.90
27619;DHT22;15039;50.830;4.730;2022-11-02T17:11:48;13.10;99.90
27619;DHT22;15039;50.830;4.730;2022-11-02T17:14:14;13.00;99.90
27619;DHT22;15039;50.830;4.730;2022-11-02T17:17:04;13.10;99.90
27619;DHT22;15039;50.830;4.730;2022-11-02T17:22:21;13.20;99.90
27619;DHT22;15039;50.830;4.730;2022-11-02T17:24:48;13.20;99.90
27619;DHT22;15039;50.830;4.730;2022-11-02T17:27:27;13.20;99.90
27619;DHT22;15039;50.830;4.730;2022-11-02T17:29:56;13.10;99.90
27619;DHT22;15039;50.830;4.730;2022-11-02T17:32:22;13.00;99.90
27619;DHT22;15039;50.830;4.730;2022-11-02T17:34:53;13.00;99.90
27619;DHT22;15039;50.830;4.730;2022-11-02T17:37:29;13.00;99.90
27619;DHT22;15039;50.830;4.730;2022-11-02T17:39:59;13.00;99.90
27619;DHT22;15039;50.830;4.730;2022-11-02T17:42:25;13.00;99.90
27619;DHT22;15039;50.830;4.730;2022-11-02T17:47:59;13.00;99.90
27619;DHT22;15039;50.830;4.730;2022-11-02T17:50:28;13.00;99.90
27619;DHT22;15039;50.830;4.730;2022-11-02T17:52:55;13.00;99.90
27619;DHT22;15039;50.830;4.730;2022-11-02T17:55:26;13.10;99.90
27619;DHT22;15039;50.830;4.730;2022-11-02T17:57:53;13.10;99.90
27619;DHT22;15039;50.830;4.730;2022-11-02T18:00:19;13.20;99.90
27619;DHT22;15039;50.830;4.730;2022-11-02T18:02:53;13.20;99.90
27619;DHT22;15039;50.830;4.730;2022-11-02T18:08:16;13.20;99.90
27619;DHT22;15039;50.830;4.730;2022-11-02T18:10:44;13.10;99.90
27619;DHT22;15039;50.830;4.730;2022-11-02T18:13:14;13.10;99.90
27619;DHT22;15039;50.830;4.730;2022-11-02T18:15:41;13.10;99.90
27619;DHT22;15039;50.830;4.730;2022-11-02T18:18:07;13.00;99.90
27619;DHT22;15039;50.830;4.730;2022-11-02T18:20:33;13.10;99.90
27619;DHT22;15039;50.830;4.730;2022-11-02T18:23:00;13.10;99.90
27619;DHT22;15039;50.830;4.730;2022-11-02T18:25:28;13.10;99.90
27619;DHT22;15039;50.830;4.730;2022-11-02T18:28:03;13.10;99.90